LiveATC.Net - Listen to live air traffic control over the Internet!


ICAO: KSUX  IATA: SUX   Airport: Sioux Gateway Airport/Col. Bud Day Field
City: Sioux City   State/Province: Iowa
Country: United States   Continent: North America
KSUX METAR Weather: KSUX 060952Z AUTO 26003KT 10SM SCT100 21/19 A2994 RMK AO2 LTG DSNT S SLP132 T02060189
KSUX Flight Activity (FlightAware)
KSUX Airport Info   (iFlightPlanner)
KSUX VFR Sectional Chart   (iFlightPlanner) 
KSUX IFR Low Altitude Chart   (iFlightPlanner) 
KSUX IFR High Altitude Chart   (iFlightPlanner) 

KSUX Twr/App/ZMP
Feed Status: UP   Listeners: 2
Listen in your browser - HTML5 player (in browser, HTML5)
Click here to listen with your own player (launches your MP3 player)
Archive Access: KSUX Twr/App/ZMP
FacilityFrequency
Emergency/Guard121.500
Sioux City Approach/Departure124.600
Sioux City Tower118.700
ZMP Minneapolis Center (Low)125.025

NOTICE

Unauthorized use prohibited. See LiveATC.net Terms of Service


Airport/ARTCC Code
Frequency Search
(e.g., 124.400, 128.75)
Site-wide search
 


Browse Feeds
Top 50 Feeds
HF Oceanic Feeds
Coverage Map
Bad Weather Areas

LiveATC FAQ
Offer LiveATC feed
Contact LiveATC.net
Press Inquiries

LiveATC on iPhone
LiveATC on Android

LiveATC Mobile
(Mobile browser)

ATC Audio Archives
Interesting Recordings

LiveATC Forums


Home Page
About LiveATC.net


Terms of Use
Privacy Policy

AIRMETs/SIGMETs

FAA Airport Status
NAS Status
Arrival Demand


Server Software By:
Icecast.org
Liquidsoap